Accueil
METAR-TAF:

METAR-TAF

Aéroports :

Aéroport d'Oujda-Angads

Oujda, Maroc

latitude: 34-47N, longitude: 001-56W, altitude: 468 m

Observation

Le bulletin a été fait il y a 23 minutes, à 10:30 UTC
Vent 6 kt de nord/nord-est, variant entre nord/nord-ouest et est/nord-est
Température 26°C
Humidité 61%
Pression 1016 hPa
Visibilité 10 km ou plus
Nuages épars à une hauteur de 1600 ft

METAR: GMFO 121030Z 02006KT 330V070 9999 SCT016 26/18 Q1016 NOSIG

Heure: 11:53 (10:53 UTC)

Prévision

Le bulletin a été fait il y a 5 heures et 53 minutes, à 05:00 UTC
Prévision valable du 12 à 06 UTC au 13 à 12 UTC
Vent 6 kt de nord-ouest
Visibilité 10 km ou plus
Quelques nuages à une hauteur de 3300 ft
Nuages épars à une hauteur de 20000 ft
Probabilité 30% :
Temporairement
du 12 à 14 UTC au 12 à 22 UTC
Quelques nuages à une hauteur de 4000 ft, Cumulonimbus.
orage, pluie

TAF: GMFO 120500Z 1206/1312 32006KT 9999 FEW033 SCT200 PROB30 TEMPO 1214/1222 TSRA FEW040CB

Observations et prévisions météorologiques de plus de 4000 aéroports (messages METAR et TAF).

Les stations disponibles sont représentées par des disques jaunes et rouges sur la carte.

Passer la souris dessus pour voir le nom de la station.

Cliquer dessus pour voir les observations et prévisions météorologiques.

Pour changer de carte: cliquez sur les boutons verts avec une croix noire pour zoomer, sur le bouton vert avec un tiret pour effectuer un zoom arrière, ou sur les flèches vertes pour les cartes adjacentes.


METAR-TAF: